Airfield :
LOGIN :

Register | Disclaimer

   EN    FR    IT 

 










Legend :    VFR   Marginal VFR   IFR   Intensive IFR   Very Intensive IFR
Visi :
Ceiling :
>= 8 km
>= 3000ft
5 to 8 km
1000 to 3000 ft
1500m to 5 km
500 to 1000 ft
800 to 1500m
200 to 500 ft
< 800m
< 200 ft
Symbols :   Thunderstorms  Fog  Heavy snow  Heavy precipitations  Wind > 20 kt
SIGMETs :     Misc.  Thunderstorms  Icing  Turbulence  Mountain Waves  Volcanic Ashes






- Airport Elevation : 37 ft


EHVL - Vlieland Heliport

CURRENT METAR :
  • 200625Z AUTO 21033G43KT 9000 -RADZ BKN009 OVC011 08/07 Q0992 RERA REDZ GRN

EXPIRED METARs :
  • 200555Z AUTO 21030KT 9999 OVC011 08/06 Q0993 GRN
  • 200525Z AUTO 21031KT 9999 OVC008 08/06 Q0993 GRN
  • 200455Z AUTO 21030KT 9000 BR OVC008 08/07 Q0993 GRN
  • 200425Z AUTO 21031KT 9000 BR OVC007 08/06 Q0993 GRN
  • 200355Z AUTO 21031KT 9000 BR OVC007 08/06 Q0994 GRN

Expired Forecast.



MET'MAP, your aeronautical weather chart ! - Copyright ORBIFLY December 2007 - Disclaimer

ORBIFLY MET'MAP TEAM :

Programming & Development : Alexandra Zaïnal
Concept & original design : Baudouin d'Aumeries
Assistance for programming : Marc-Olivier Méhu
Technical & hardware support : Manuel Goepfert

Contact : metmap@orbifly.com




SOURCES & CREDITS :

   NOAA